Airports Germany Saarbr├╝cken Airport

Saarbr├╝cken Airport (EDDR / SCN)

Facts about Saarbrücken Airport

Name Saarbrücken Airport
City Saarbruecken
Country Germany
ICAO code EDDR
IATA code SCN
Elevation 322.4784 meters (1058 feet)

Weather

METAR

Metar data retrieved Friday, 19 July 2024 at 23:55 UTC (6 minutes ago)

EDDR 192320Z AUTO 13002KT CAVOK 19/17 Q1015

Live traffic

Navigraph Charts (account required)